Time;durP1;ratioP1;P1;durP2;ratioP2;P2;SDS_P1;SDS_P2;PMS_P1;PMS_P2;Temp;Humidity;BMP_temperature;BMP_pressure;BME280_temperature;BME280_humidity;BME280_pressure;Samples;Min_cycle;Max_cycle;Signal;HPM_P1;HPM_P2
2022/08/05 00:00:33;;;;;;;4.65;4.20;;;;;;;15.73;65.32;93641.72;5086920;28;20027;-54
2022/08/05 00:02:58;;;;;;;9.05;3.38;;;;;;;15.86;65.00;93639.31;5088459;28;20024;-50
2022/08/05 00:05:24;;;;;;;14.57;6.88;;;;;;;15.84;65.04;93638.41;5089315;28;20039;-57
2022/08/05 00:07:50;;;;;;;11.60;5.85;;;;;;;15.69;65.93;93636.59;5089373;28;20020;-50
2022/08/05 00:10:15;;;;;;;7.57;3.78;;;;;;;15.78;66.04;93635.16;5090037;28;20024;-48
2022/08/05 00:12:40;;;;;;;17.73;4.93;;;;;;;15.62;66.44;93633.91;5089412;28;20493;-50
2022/08/05 00:15:06;;;;;;;23.80;4.70;;;;;;;15.70;66.62;93626.91;5089409;28;20115;-49
2022/08/05 00:17:32;;;;;;;15.82;5.55;;;;;;;15.57;66.82;93634.91;5087416;28;20040;-55
2022/08/05 00:19:57;;;;;;;3.70;3.35;;;;;;;15.44;67.17;93638.06;5074127;28;20024;-54
2022/08/05 00:22:23;;;;;;;5.00;3.95;;;;;;;15.53;66.60;93629.75;5089407;28;20022;-54
2022/08/05 00:24:48;;;;;;;4.50;4.10;;;;;;;15.59;65.46;93632.28;5089655;28;20036;-55
2022/08/05 00:27:14;;;;;;;6.13;3.35;;;;;;;15.56;64.94;93639.75;5089340;28;20024;-53
2022/08/05 00:29:39;;;;;;;4.95;4.32;;;;;;;15.53;65.41;93637.34;5089324;28;20016;-52
2022/08/05 00:32:05;;;;;;;4.57;3.40;;;;;;;15.53;65.11;93626.97;5089601;28;20024;-51
2022/08/05 00:34:31;;;;;;;4.43;3.80;;;;;;;15.64;65.45;93636.84;5089379;28;20015;-54
2022/08/05 00:36:56;;;;;;;7.45;4.30;;;;;;;15.62;65.57;93631.84;5088151;28;20032;-56
2022/08/05 00:39:22;;;;;;;8.40;3.75;;;;;;;15.39;66.13;93641.78;5087026;28;20027;-53
2022/08/05 00:41:48;;;;;;;3.25;2.90;;;;;;;15.35;66.14;93639.44;5089318;28;20023;-59
2022/08/05 00:44:14;;;;;;;8.13;3.55;;;;;;;15.31;65.92;93638.38;5089176;28;20016;-61
2022/08/05 00:46:39;;;;;;;12.48;3.80;;;;;;;15.34;65.54;93643.50;5089464;28;20101;-55
2022/08/05 00:49:05;;;;;;;6.93;3.25;;;;;;;15.12;66.52;93633.41;5089189;28;20416;-53
2022/08/05 00:51:30;;;;;;;24.70;3.90;;;;;;;15.07;66.81;93637.19;5092728;28;20093;-49
2022/08/05 00:53:55;;;;;;;9.40;3.60;;;;;;;14.95;67.51;93636.94;5093093;28;20019;-52
2022/08/05 00:56:21;;;;;;;5.18;3.70;;;;;;;15.02;67.39;93635.38;5092983;28;20040;-50
2022/08/05 00:58:47;;;;;;;5.25;3.90;;;;;;;15.08;67.38;93633.06;5092989;28;20024;-48
2022/08/05 01:01:14;;;;;;;9.90;3.53;;;;;;;15.17;66.86;93627.59;5093200;28;20031;-48
2022/08/05 01:03:40;;;;;;;6.43;3.75;;;;;;;15.04;67.25;93608.47;5093641;28;20016;-49
2022/08/05 01:06:06;;;;;;;6.00;5.50;;;;;;;15.07;67.31;93628.84;5093625;28;20031;-48
2022/08/05 01:08:32;;;;;;;5.65;4.05;;;;;;;14.93;68.29;93630.47;5093161;28;20088;-49
2022/08/05 01:11:20;;;;;;;10.15;4.63;;;;;;;14.95;67.83;93636.94;5093385;28;20503;-48
2022/08/05 01:13:55;;;;;;;6.68;3.42;;;;;;;15.05;66.80;93629.38;5091424;28;20028;-48
2022/08/05 01:16:28;;;;;;;11.13;3.80;;;;;;;14.95;67.11;93625.06;5092204;28;20634;-50
2022/08/05 01:18:59;;;;;;;6.55;3.75;;;;;;;14.88;67.50;93629.41;5091986;28;20032;-48
2022/08/05 01:21:47;;;;;;;15.07;4.05;;;;;;;14.81;67.90;93633.00;5093110;28;20496;-48
2022/08/05 01:24:18;;;;;;;7.03;3.70;;;;;;;14.82;67.41;93619.84;5091796;28;20095;-50
2022/08/05 01:26:51;;;;;;;4.15;3.55;;;;;;;14.71;67.17;93628.66;5092843;28;20585;-48
2022/08/05 01:29:20;;;;;;;26.25;4.47;;;;;;;14.68;67.37;93629.81;5093268;28;20165;-49
2022/08/05 01:31:50;;;;;;;16.88;4.30;;;;;;;14.70;67.18;93624.44;5090106;28;20062;-58
2022/08/05 01:34:35;;;;;;;4.57;3.55;;;;;;;14.72;66.82;93628.09;5093395;28;20443;-54
2022/08/05 01:37:05;;;;;;;8.77;4.03;;;;;;;14.78;66.68;93619.50;5091607;28;20024;-53
2022/08/05 01:39:31;;;;;;;5.28;4.43;;;;;;;14.63;67.49;93628.75;5091845;28;20112;-58
2022/08/05 01:41:57;;;;;;;9.02;5.63;;;;;;;14.75;67.00;93623.47;5092469;28;20024;-59
2022/08/05 01:44:24;;;;;;;8.45;5.50;;;;;;;14.70;67.56;93625.16;5091487;28;20016;-59
2022/08/05 01:46:49;;;;;;;5.70;4.80;;;;;;;14.77;67.44;93623.63;5092922;28;20035;-59
2022/08/05 01:49:21;;;;;;;10.02;5.00;;;;;;;14.72;67.85;93628.09;5092392;28;20020;-59
2022/08/05 01:51:47;;;;;;;7.28;4.90;;;;;;;14.68;67.80;93625.00;5092499;28;20583;-59
2022/08/05 01:54:14;;;;;;;8.20;5.30;;;;;;;14.67;67.54;93626.31;5092426;28;20112;-51
2022/08/05 01:56:40;;;;;;;5.32;4.50;;;;;;;14.60;67.92;93624.31;5092115;28;20554;-53
2022/08/05 01:59:10;;;;;;;7.45;6.65;;;;;;;14.43;68.21;93627.09;5091378;28;20024;-49
2022/08/05 02:01:35;;;;;;;;;;;;;;;14.35;68.04;93618.09;5092743;28;20028;-50
2022/08/05 02:04:02;;;;;;;6.55;5.47;;;;;;;14.31;67.98;93618.47;5090980;28;19908;-51
2022/08/05 02:06:28;;;;;;;4.60;3.83;;;;;;;14.25;67.88;93615.19;5090902;28;20047;-52
2022/08/05 02:08:53;;;;;;;4.25;3.85;;;;;;;14.29;68.33;93620.38;5091200;28;20047;-53
2022/08/05 02:11:19;;;;;;;4.22;3.80;;;;;;;14.41;67.82;93615.81;5092370;28;20024;-52
2022/08/05 02:14:20;;;;;;;4.57;3.88;;;;;;;14.52;67.31;93620.91;5090165;28;20489;-55
2022/08/05 02:16:53;;;;;;;3.60;3.30;;;;;;;14.40;67.52;93615.06;5088628;28;20517;-56
2022/08/05 02:19:42;;;;;;;4.40;4.00;;;;;;;14.17;69.18;93608.22;5091938;28;20035;-57
2022/08/05 02:22:22;;;;;;;5.57;4.25;;;;;;;14.11;69.10;93591.81;5090761;28;20019;-57
2022/08/05 02:24:51;;;;;;;6.25;4.38;;;;;;;14.25;68.82;93612.41;5090826;28;20096;-54
2022/08/05 02:27:16;;;;;;;;;;;;;;;14.20;68.69;93605.06;5091135;28;20058;-57
2022/08/05 02:29:43;;;;;;;4.90;4.38;;;;;;;14.20;69.09;93602.28;5089145;28;19952;-56
2022/08/05 02:32:09;;;;;;;4.60;3.72;;;;;;;14.28;68.95;93602.19;5090241;28;20016;-56
2022/08/05 02:34:35;;;;;;;4.80;3.92;;;;;;;14.34;67.85;93600.69;5090021;28;20586;-54
2022/08/05 02:37:03;;;;;;;4.38;3.72;;;;;;;14.27;68.21;93604.22;5088907;28;20016;-57
2022/08/05 02:39:33;;;;;;;3.60;3.13;;;;;;;14.35;68.17;93598.66;5089901;28;20082;-59
2022/08/05 02:42:00;;;;;;;10.73;8.00;;;;;;;14.41;67.55;93601.94;5088662;28;20058;-59
2022/08/05 02:44:26;;;;;;;3.75;3.40;;;;;;;14.35;67.74;93604.94;5089895;28;20043;-56
2022/08/05 02:46:54;;;;;;;3.97;3.55;;;;;;;14.26;67.04;93582.59;5090267;28;20093;-58
2022/08/05 02:49:20;;;;;;;4.40;3.55;;;;;;;14.25;67.12;93595.03;5090257;28;20024;-59
2022/08/05 02:51:45;;;;;;;5.15;3.45;;;;;;;14.14;67.89;93601.03;5091293;28;20032;-58
2022/08/05 02:54:12;;;;;;;6.45;3.40;;;;;;;14.14;67.61;93582.31;5090068;28;20024;-59
2022/08/05 02:56:39;;;;;;;7.78;4.05;;;;;;;14.02;68.46;93600.75;5089898;28;20024;-60
2022/08/05 02:59:05;;;;;;;5.95;3.53;;;;;;;13.94;68.28;93604.91;5089882;28;20020;-60
2022/08/05 03:01:32;;;;;;;4.00;3.63;;;;;;;13.86;67.94;93604.94;5088797;28;20032;-60
2022/08/05 03:04:02;;;;;;;4.03;3.60;;;;;;;13.76;68.35;93606.13;5089377;28;20008;-60
2022/08/05 03:06:28;;;;;;;3.75;3.30;;;;;;;13.70;68.24;93606.38;5090430;28;20569;-59
2022/08/05 03:08:53;;;;;;;3.72;3.42;;;;;;;13.74;68.29;93603.94;5093796;28;20027;-60
2022/08/05 03:11:24;;;;;;;4.32;3.58;;;;;;;13.77;67.97;93602.06;5099354;28;20023;-60
2022/08/05 03:13:50;;;;;;;4.25;3.60;;;;;;;13.77;68.63;93597.25;5096379;28;20039;-48
2022/08/05 03:16:16;;;;;;;10.13;3.92;;;;;;;13.89;68.25;93601.06;5095928;28;20039;-49
2022/08/05 03:18:42;;;;;;;3.92;3.53;;;;;;;13.78;68.29;93597.97;5092999;28;20032;-49
2022/08/05 03:21:07;;;;;;;4.07;3.63;;;;;;;13.54;69.25;93600.19;5094276;28;20027;-49
2022/08/05 03:23:34;;;;;;;4.93;3.90;;;;;;;13.67;68.30;93608.25;5089157;28;20067;-49
2022/08/05 03:26:00;;;;;;;4.18;3.75;;;;;;;13.77;67.88;93607.63;5089365;28;20401;-51
2022/08/05 03:28:28;;;;;;;5.57;3.92;;;;;;;13.64;68.27;93614.91;5090483;28;20030;-57
2022/08/05 03:30:55;;;;;;;5.18;3.95;;;;;;;13.68;68.18;93606.94;5089035;28;20046;-57
2022/08/05 03:33:20;;;;;;;5.93;4.40;;;;;;;13.68;68.08;93606.22;5090314;28;20016;-57
2022/08/05 03:35:47;;;;;;;4.80;4.30;;;;;;;13.84;67.74;93604.06;5089245;28;20091;-57
2022/08/05 03:38:13;;;;;;;6.55;3.63;;;;;;;13.80;68.02;93600.94;5087418;28;20489;-57
2022/08/05 03:40:43;;;;;;;3.97;3.47;;;;;;;13.68;67.97;93600.66;5089995;28;20012;-57
2022/08/05 03:43:08;;;;;;;6.10;3.72;;;;;;;13.59;68.33;93609.59;5089976;28;20016;-49
2022/08/05 03:45:34;;;;;;;4.68;3.65;;;;;;;13.66;68.16;93614.34;5089979;28;20050;-48
2022/08/05 03:47:59;;;;;;;3.83;3.42;;;;;;;13.81;67.64;93605.19;5090391;28;20153;-48
2022/08/05 03:50:32;;;;;;;4.78;3.72;;;;;;;13.66;68.65;93615.06;5090214;28;20085;-48
2022/08/05 03:53:08;;;;;;;4.40;3.80;;;;;;;13.62;68.57;93614.72;5089457;28;20092;-48
2022/08/05 03:55:36;;;;;;;6.65;3.85;;;;;;;13.40;69.11;93612.84;5088858;28;20024;-51
2022/08/05 03:58:03;;;;;;;4.75;3.92;;;;;;;13.48;69.06;93608.00;5090223;28;20028;-49
2022/08/05 04:00:31;;;;;;;4.63;3.45;;;;;;;13.52;68.74;93610.38;5090113;28;20031;-50
2022/08/05 04:02:58;;;;;;;6.55;3.70;;;;;;;13.50;68.82;93596.31;5090463;28;20020;-52
2022/08/05 04:05:26;;;;;;;7.88;4.05;;;;;;;13.71;68.67;93618.94;5090575;28;20020;-49
2022/08/05 04:07:52;;;;;;;3.92;3.38;;;;;;;13.85;68.06;93613.84;5090559;28;20414;-53
2022/08/05 04:10:18;;;;;;;6.07;3.42;;;;;;;13.83;68.30;93608.88;5088231;28;20110;-59
2022/08/05 04:12:43;;;;;;;5.38;3.70;;;;;;;13.64;69.29;93614.19;5089708;28;20027;-58
2022/08/05 04:15:09;;;;;;;46.38;17.17;;;;;;;13.48;69.92;93594.13;5088788;28;20044;-59
2022/08/05 04:17:35;;;;;;;14.48;4.13;;;;;;;13.60;70.11;93614.56;5090083;28;20028;-59
2022/08/05 04:20:00;;;;;;;19.45;6.45;;;;;;;13.79;69.55;93621.66;5090240;28;20030;-59
2022/08/05 04:22:26;;;;;;;12.32;6.88;;;;;;;13.86;69.09;93618.81;5089521;28;20401;-59
2022/08/05 04:24:51;;;;;;;9.70;6.18;;;;;;;13.92;68.75;93618.63;5090485;28;20405;-51
2022/08/05 04:27:17;;;;;;;9.60;5.85;;;;;;;13.87;68.90;93591.81;5081200;28;20409;-48
2022/08/05 04:29:42;;;;;;;7.45;5.65;;;;;;;13.90;69.70;93613.63;5090293;28;20492;-50
2022/08/05 04:32:08;;;;;;;8.88;5.65;;;;;;;13.73;70.08;93580.25;5093288;28;20047;-53
2022/08/05 04:34:34;;;;;;;10.02;5.65;;;;;;;14.08;69.93;93609.59;5093460;28;20020;-50
2022/08/05 04:37:00;;;;;;;4.95;4.45;;;;;;;14.10;70.45;93604.19;5093098;28;20035;-51
2022/08/05 04:39:26;;;;;;;5.38;4.50;;;;;;;14.15;70.38;93608.06;5092781;28;20027;-54
2022/08/05 04:41:51;;;;;;;11.95;5.00;;;;;;;14.18;71.19;93604.91;5093395;28;20020;-47
2022/08/05 04:44:17;;;;;;;5.50;4.82;;;;;;;14.10;71.26;93584.78;5093205;28;20424;-52
2022/08/05 04:46:43;;;;;;;5.18;4.68;;;;;;;14.22;71.63;93607.25;5091880;28;20032;-55
2022/08/05 04:49:08;;;;;;;15.55;5.90;;;;;;;14.29;72.18;93607.22;5106185;28;20062;-50
2022/08/05 04:51:33;;;;;;;5.50;4.47;;;;;;;14.28;72.06;93604.97;5114162;28;20477;-57
2022/08/05 04:53:59;;;;;;;5.25;4.70;;;;;;;14.51;71.65;93602.03;5113861;28;20020;-51
2022/08/05 04:56:25;;;;;;;4.90;4.32;;;;;;;14.46;72.14;93600.97;5102370;28;20063;-55
2022/08/05 04:58:50;;;;;;;5.07;4.55;;;;;;;14.58;71.99;93596.38;5093470;28;20054;-50
2022/08/05 05:01:15;;;;;;;5.18;4.57;;;;;;;14.84;70.88;93592.94;5093325;28;20016;-54
2022/08/05 05:03:41;;;;;;;6.05;4.35;;;;;;;14.95;71.15;93595.22;5093045;28;20016;-51
2022/08/05 05:06:10;;;;;;;4.93;4.28;;;;;;;15.09;70.42;93587.28;5092107;28;20085;-54
2022/08/05 05:08:36;;;;;;;6.15;4.60;;;;;;;15.12;71.40;93581.28;5093298;28;20024;-59
2022/08/05 05:11:02;;;;;;;8.90;4.78;;;;;;;15.27;70.98;93588.69;5093349;28;20104;-58
2022/08/05 05:13:28;;;;;;;9.32;4.78;;;;;;;15.41;70.76;93580.75;5092855;28;20052;-58
2022/08/05 05:15:53;;;;;;;5.47;4.93;;;;;;;15.37;70.92;93558.16;5093068;28;20036;-59
2022/08/05 05:18:19;;;;;;;8.98;5.32;;;;;;;15.60;70.78;93584.38;5093397;28;20096;-58
2022/08/05 05:20:45;;;;;;;7.35;5.63;;;;;;;15.73;70.66;93584.00;5092346;28;20054;-57
2022/08/05 05:23:12;;;;;;;10.73;6.32;;;;;;;15.78;71.00;93580.22;5092923;28;20054;-54
2022/08/05 05:25:39;;;;;;;10.25;5.85;;;;;;;15.83;71.31;93579.22;5093255;28;20412;-60
2022/08/05 05:28:05;;;;;;;22.02;5.75;;;;;;;15.95;70.76;93576.63;5093002;28;20067;-55
2022/08/05 05:30:31;;;;;;;18.63;5.75;;;;;;;16.06;70.44;93578.13;5092903;28;20048;-56
2022/08/05 05:32:57;;;;;;;10.13;5.32;;;;;;;16.18;69.66;93579.03;5091620;28;20118;-56
2022/08/05 05:35:22;;;;;;;6.47;4.78;;;;;;;16.26;68.83;93576.88;5092641;28;20054;-56
2022/08/05 05:37:52;;;;;;;6.88;5.05;;;;;;;16.38;69.26;93572.19;5092397;28;20497;-57
2022/08/05 05:40:19;;;;;;;11.07;5.63;;;;;;;16.46;69.19;93578.34;5092042;28;20031;-55
2022/08/05 05:42:45;;;;;;;28.75;5.50;;;;;;;16.58;69.11;93577.25;5092691;28;20028;-55
2022/08/05 05:45:11;;;;;;;8.35;4.75;;;;;;;16.71;68.33;93580.91;5092879;28;20504;-56
2022/08/05 05:47:37;;;;;;;7.32;4.38;;;;;;;16.68;68.09;93564.03;5092165;28;20032;-54
2022/08/05 05:50:03;;;;;;;5.40;4.72;;;;;;;16.94;67.71;93586.78;5092456;28;20123;-54
2022/08/05 05:52:29;;;;;;;5.88;3.78;;;;;;;17.12;67.11;93579.75;5092753;28;20028;-54
2022/08/05 05:54:59;;;;;;;3.88;3.58;;;;;;;17.17;66.61;93575.94;5091239;28;20409;-56
2022/08/05 05:57:24;;;;;;;5.88;5.28;;;;;;;17.27;65.85;93580.16;5092391;28;20540;-54
2022/08/05 05:59:49;;;;;;;6.10;4.65;;;;;;;17.27;65.93;93585.75;5092600;28;20035;-54
2022/08/05 06:02:15;;;;;;;10.07;5.85;;;;;;;17.42;65.07;93579.09;5091869;28;20106;-56
2022/08/05 06:04:41;;;;;;;6.05;4.20;;;;;;;17.56;63.98;93579.41;5092371;28;20023;-55
2022/08/05 06:07:06;;;;;;;4.72;3.47;;;;;;;17.68;65.42;93583.03;5092253;28;20489;-56
2022/08/05 06:09:31;;;;;;;4.05;3.65;;;;;;;17.79;63.45;93582.41;5091407;28;20043;-56
2022/08/05 06:11:57;;;;;;;4.38;3.35;;;;;;;17.93;63.28;93583.41;5091681;28;20435;-56
2022/08/05 06:14:22;;;;;;;12.05;3.72;;;;;;;17.97;62.66;93584.41;5092140;28;20055;-58
2022/08/05 06:16:48;;;;;;;38.67;5.88;;;;;;;18.03;62.35;93575.72;5092189;28;20046;-59
2022/08/05 06:19:13;;;;;;;3.28;3.00;;;;;;;18.32;61.54;93583.97;5091999;28;20046;-60
2022/08/05 06:21:39;;;;;;;37.95;6.90;;;;;;;18.41;61.45;93583.91;5092138;28;20020;-58
2022/08/05 06:24:06;;;;;;;2.78;2.58;;;;;;;18.52;60.88;93565.75;5092094;28;20016;-58
2022/08/05 06:26:31;;;;;;;3.47;3.17;;;;;;;18.64;60.38;93577.75;5092062;28;20450;-57
2022/08/05 06:28:57;;;;;;;3.20;2.90;;;;;;;18.79;60.00;93586.50;5092098;28;20154;-56
2022/08/05 06:31:22;;;;;;;7.50;3.58;;;;;;;18.94;61.27;93576.94;5091765;28;20390;-57
2022/08/05 06:33:48;;;;;;;4.00;3.58;;;;;;;19.14;60.13;93572.66;5090510;28;20029;-56
2022/08/05 06:36:13;;;;;;;3.65;3.20;;;;;;;19.35;57.57;93578.25;5091659;28;20016;-53
2022/08/05 06:38:39;;;;;;;8.20;3.40;;;;;;;19.47;57.47;93581.81;5091251;28;20031;-54
2022/08/05 06:41:04;;;;;;;2.92;2.72;;;;;;;19.59;55.46;93574.19;5091026;28;20059;-57
2022/08/05 06:43:30;;;;;;;6.53;3.50;;;;;;;19.67;56.83;93580.28;5091306;28;20481;-55
2022/08/05 06:45:56;;;;;;;3.88;2.72;;;;;;;19.94;54.62;93574.25;5084928;28;20028;-53
2022/08/05 06:48:21;;;;;;;8.70;2.75;;;;;;;19.98;55.65;93566.06;5070733;28;20052;-55
2022/08/05 06:50:47;;;;;;;4.28;2.90;;;;;;;20.19;55.36;93568.03;5103567;28;20032;-53
2022/08/05 06:53:13;;;;;;;9.52;3.25;;;;;;;20.34;55.58;93568.28;5090054;28;20024;-53
2022/08/05 06:55:40;;;;;;;3.08;2.47;;;;;;;20.54;54.27;93571.56;5089684;28;20031;-50
2022/08/05 06:58:05;;;;;;;3.83;2.90;;;;;;;20.80;54.22;93564.69;5089139;28;20149;-57
2022/08/05 07:00:32;;;;;;;3.15;2.75;;;;;;;20.77;53.53;93557.50;5088901;28;20031;-57
2022/08/05 07:02:58;;;;;;;3.03;2.83;;;;;;;20.95;53.26;93569.78;5088793;28;20019;-53
2022/08/05 07:05:24;;;;;;;7.47;2.83;;;;;;;21.08;53.10;93565.59;5088525;28;20473;-51
2022/08/05 07:07:49;;;;;;;3.55;3.20;;;;;;;21.19;53.26;93566.91;5089704;28;20047;-50
2022/08/05 07:10:15;;;;;;;3.88;3.40;;;;;;;21.39;52.97;93568.06;5090098;28;20035;-53
2022/08/05 07:18:08;;;;;;;3.10;2.90;;;;;;;21.73;51.46;93562.25;5087967;28;20412;-49
2022/08/05 07:20:33;;;;;;;3.78;3.42;;;;;;;21.87;51.71;93568.66;5088007;28;20024;-51
2022/08/05 07:22:59;;;;;;;11.38;3.28;;;;;;;22.04;51.31;93564.66;5087598;28;20492;-53
2022/08/05 07:25:24;;;;;;;7.85;4.10;;;;;;;22.09;51.70;93563.50;5087878;28;20031;-50
2022/08/05 07:27:52;;;;;;;3.95;3.03;;;;;;;22.22;51.24;93568.41;5081327;28;20032;-57
2022/08/05 07:30:17;;;;;;;6.88;3.17;;;;;;;22.36;50.07;93562.81;5081148;28;20111;-58
2022/08/05 07:32:43;;;;;;;5.72;3.35;;;;;;;22.52;49.85;93564.38;5075169;28;20107;-52
2022/08/05 07:35:09;;;;;;;3.00;2.80;;;;;;;22.82;48.65;93561.69;5087974;28;20020;-50
2022/08/05 07:37:35;;;;;;;6.95;3.38;;;;;;;23.47;49.65;93560.00;5080574;28;20088;-58
2022/08/05 07:40:01;;;;;;;3.35;3.05;;;;;;;24.41;46.47;93558.75;5078085;28;20497;-59
2022/08/05 07:42:26;;;;;;;3.08;2.58;;;;;;;25.61;42.95;93556.09;5072363;28;20054;-58
2022/08/05 07:44:51;;;;;;;5.82;3.33;;;;;;;26.68;38.92;93563.78;5090666;28;20024;-60
2022/08/05 07:47:17;;;;;;;3.30;3.00;;;;;;;27.32;36.97;93560.38;5090381;28;20035;-60
2022/08/05 07:49:43;;;;;;;3.47;3.15;;;;;;;28.04;37.40;93564.16;5090398;28;20027;-58
2022/08/05 07:52:08;;;;;;;2.55;2.35;;;;;;;28.90;36.70;93561.03;5090355;28;20024;-58
2022/08/05 07:54:33;;;;;;;2.92;2.33;;;;;;;29.35;33.22;93548.75;5085739;28;20111;-55
2022/08/05 07:57:03;;;;;;;5.70;2.70;;;;;;;29.80;34.29;93565.56;5074130;28;20563;-56
2022/08/05 07:59:28;;;;;;;2.63;2.33;;;;;;;30.17;33.49;93560.75;5085181;28;20441;-55
2022/08/05 08:01:54;;;;;;;3.38;2.30;;;;;;;30.53;31.55;93567.25;5086991;28;20035;-51
2022/08/05 08:04:20;;;;;;;2.72;2.53;;;;;;;30.92;30.95;93551.69;5084869;28;20054;-52
2022/08/05 08:06:45;;;;;;;6.35;2.80;;;;;;;31.48;30.45;93555.63;5079527;28;20032;-55
2022/08/05 08:09:11;;;;;;;3.00;2.15;;;;;;;31.89;30.39;93560.63;5076488;28;20397;-48
2022/08/05 08:11:36;;;;;;;4.35;2.60;;;;;;;32.34;29.73;93562.03;5083257;28;20106;-49
2022/08/05 08:14:02;;;;;;;14.60;13.38;;;;;;;32.61;27.03;93558.16;5073263;28;20040;-53
2022/08/05 08:16:27;;;;;;;2.90;2.60;;;;;;;32.80;26.85;93559.84;5084943;28;20039;-51
2022/08/05 08:18:53;;;;;;;5.63;2.95;;;;;;;33.13;27.45;93566.69;5081843;28;20478;-52
2022/08/05 08:21:18;;;;;;;2.50;2.30;;;;;;;33.24;26.35;93556.81;5079614;28;20485;-57
2022/08/05 08:23:44;;;;;;;2.22;2.00;;;;;;;33.86;26.73;93565.31;5075838;28;20090;-53
2022/08/05 08:26:09;;;;;;;2.90;2.05;;;;;;;33.85;26.08;93557.44;5087845;28;20492;-57
2022/08/05 08:28:35;;;;;;;2.10;1.90;;;;;;;33.55;24.62;93526.34;5081614;28;20054;-57
2022/08/05 08:31:00;;;;;;;4.07;2.05;;;;;;;34.20;25.35;93562.00;5073497;28;20031;-53
2022/08/05 08:33:26;;;;;;;3.30;2.40;;;;;;;34.90;25.04;93562.47;5081423;28;20533;-52
2022/08/05 08:35:51;;;;;;;2.45;2.25;;;;;;;34.49;24.41;93545.72;5069753;28;20102;-54
2022/08/05 08:38:17;;;;;;;7.13;2.30;;;;;;;34.63;24.71;93555.16;5067341;28;20098;-54
2022/08/05 08:40:43;;;;;;;4.22;2.50;;;;;;;35.24;24.41;93553.28;5072706;28;20055;-53
2022/08/05 08:43:10;;;;;;;3.90;3.13;;;;;;;35.20;24.15;93553.28;5087756;28;20038;-56
2022/08/05 08:45:36;;;;;;;4.03;3.00;;;;;;;35.45;24.41;93549.06;5080858;28;20039;-56
2022/08/05 08:48:04;;;;;;;12.48;10.00;;;;;;;36.19;23.71;93551.31;5079499;28;20497;-56
2022/08/05 08:50:30;;;;;;;9.27;8.40;;;;;;;36.78;23.07;93543.31;5086211;28;20107;-59
2022/08/05 08:53:01;;;;;;;9.20;5.85;;;;;;;37.13;21.50;93549.69;5085944;28;20024;-57
2022/08/05 08:55:27;;;;;;;3.20;2.90;;;;;;;36.55;21.50;93556.34;5084485;28;20115;-58
2022/08/05 08:57:52;;;;;;;3.80;2.58;;;;;;;36.33;21.40;93547.69;5082181;28;20556;-57
2022/08/05 09:00:18;;;;;;;2.90;1.83;;;;;;;35.97;21.55;93542.72;5084180;28;20055;-56
2022/08/05 09:02:43;;;;;;;2.50;2.08;;;;;;;35.71;21.17;93549.09;5084654;28;20020;-55
2022/08/05 09:05:10;;;;;;;2.83;2.42;;;;;;;35.23;22.68;93549.00;5085536;28;20031;-57
2022/08/05 09:07:36;;;;;;;4.10;2.88;;;;;;;35.34;21.62;93518.16;5086124;28;20683;-57
2022/08/05 09:10:03;;;;;;;1.70;1.60;;;;;;;35.46;20.63;93533.25;5085289;28;20024;-58
2022/08/05 09:12:28;;;;;;;2.28;1.85;;;;;;;35.22;22.32;93536.06;5088724;28;20511;-57
2022/08/05 09:14:54;;;;;;;1.90;1.80;;;;;;;35.14;22.60;93529.56;5087985;28;20114;-57
2022/08/05 09:17:19;;;;;;;4.10;1.70;;;;;;;35.36;21.42;93524.63;5090025;28;20116;-58
2022/08/05 09:19:45;;;;;;;3.80;2.35;;;;;;;35.77;22.76;93526.16;5088771;28;20039;-56
2022/08/05 09:22:10;;;;;;;2.75;2.08;;;;;;;36.55;20.46;93521.81;5090425;28;20032;-57
2022/08/05 09:24:36;;;;;;;7.95;2.50;;;;;;;37.03;20.68;93526.72;5090050;28;20120;-57
2022/08/05 09:27:06;;;;;;;2.40;2.20;;;;;;;36.78;20.79;93523.19;5089164;28;20032;-57
2022/08/05 09:29:46;;;;;;;2.25;2.05;;;;;;;36.27;22.38;93516.09;5089304;28;20457;-59
2022/08/05 09:32:11;;;;;;;2.33;2.13;;;;;;;36.07;20.80;93516.81;5087304;28;20111;-58
2022/08/05 09:34:47;;;;;;;3.58;2.28;;;;;;;36.52;21.36;93516.78;5089335;28;20099;-57
2022/08/05 09:57:53;;;;;;;3.33;1.77;;;;;;;41.27;16.07;93509.28;5086541;27;20663;-58
2022/08/05 10:00:23;;;;;;;2.00;1.90;;;;;;;41.03;16.13;93494.56;5087328;28;20568;-57
2022/08/05 10:02:53;;;;;;;2.15;1.98;;;;;;;40.59;16.96;93505.53;5087614;28;20028;-58
2022/08/05 10:05:26;;;;;;;2.78;1.95;;;;;;;40.12;16.02;93487.53;5065921;28;20028;-58
2022/08/05 10:07:56;;;;;;;2.60;1.98;;;;;;;39.43;16.82;93499.41;5062356;28;20111;-60
2022/08/05 10:10:24;;;;;;;2.42;2.22;;;;;;;38.30;17.49;93494.91;5066734;28;20031;-61
2022/08/05 10:12:52;;;;;;;3.38;2.30;;;;;;;37.64;20.29;93498.31;5061021;28;20115;-59
2022/08/05 10:15:32;;;;;;;3.03;1.90;;;;;;;38.41;18.45;93499.13;5066223;28;20044;-60
2022/08/05 10:18:12;;;;;;;2.45;2.25;;;;;;;38.35;17.11;93502.09;5066895;28;20116;-61
2022/08/05 10:20:40;;;;;;;6.10;2.17;;;;;;;38.48;18.19;93496.91;5066658;28;20031;-60
2022/08/05 10:23:06;;;;;;;;;;;;;;;38.96;19.47;93489.91;5067508;28;20025;-58
2022/08/05 10:25:31;;;;;;;2.22;2.00;;;;;;;39.37;16.88;93487.94;5067033;28;20357;-60
2022/08/05 10:27:57;;;;;;;2.30;2.10;;;;;;;39.79;16.67;93487.31;5066595;28;20513;-59
2022/08/05 10:30:23;;;;;;;2.20;2.10;;;;;;;40.59;15.74;93476.56;5066916;28;20029;-59
2022/08/05 10:32:48;;;;;;;3.63;2.28;;;;;;;41.43;16.00;93485.06;5066559;28;20485;-60
2022/08/05 10:35:14;;;;;;;1.60;1.50;;;;;;;41.29;14.92;93480.28;5066490;28;20039;-60
2022/08/05 10:37:40;;;;;;;1.95;1.85;;;;;;;41.71;14.80;93475.03;5066512;28;20031;-58
2022/08/05 10:40:14;;;;;;;2.53;2.03;;;;;;;41.71;15.46;93475.75;5062890;28;20464;-61
2022/08/05 10:42:42;;;;;;;3.05;1.80;;;;;;;40.90;15.61;93478.91;5056340;28;20519;-60
2022/08/05 10:45:08;;;;;;;2.30;1.80;;;;;;;39.14;17.63;93489.69;5066250;28;20031;-54
2022/08/05 10:47:35;;;;;;;4.13;1.95;;;;;;;37.42;18.75;93481.91;5065042;28;20033;-61
2022/08/05 10:50:12;;;;;;;2.35;1.80;;;;;;;35.85;19.57;93479.44;5066194;28;20056;-60
2022/08/05 10:52:40;;;;;;;3.95;2.20;;;;;;;34.28;21.69;93485.41;5066282;28;20025;-60
2022/08/05 10:55:08;;;;;;;3.40;2.33;;;;;;;33.60;22.69;93482.03;5065633;28;20013;-60
2022/08/05 10:57:34;;;;;;;3.33;2.42;;;;;;;33.14;23.79;93481.56;5059602;28;20550;-62
2022/08/05 11:00:17;;;;;;;2.50;2.10;;;;;;;33.95;22.20;93472.28;5053220;28;20056;-60
2022/08/05 11:03:05;;;;;;;2.10;1.90;;;;;;;34.90;20.88;93464.19;5053010;28;20086;-61
2022/08/05 11:43:21;;;;;;;2.92;1.95;;;;;;;35.72;19.81;93444.25;5106542;27;20618;-59
2022/08/05 11:45:47;;;;;;;3.58;2.38;;;;;;;34.62;21.66;93444.03;5103624;28;20023;-58
2022/08/05 11:48:12;;;;;;;2.30;2.10;;;;;;;34.04;21.53;93439.41;5103206;28;20093;-59
2022/08/05 11:50:38;;;;;;;2.30;2.10;;;;;;;33.34;22.68;93436.69;5102746;28;20526;-59
2022/08/05 11:53:04;;;;;;;2.15;2.05;;;;;;;32.56;23.17;93442.31;5103408;28;20012;-59
2022/08/05 11:55:29;;;;;;;2.20;1.98;;;;;;;31.95;24.19;93431.50;5102381;28;20031;-58
2022/08/05 11:57:55;;;;;;;3.67;2.28;;;;;;;31.69;24.97;93431.81;5103156;28;20027;-58
2022/08/05 12:00:29;;;;;;;2.30;2.10;;;;;;;31.30;24.75;93436.16;5101420;28;20024;-59
2022/08/05 12:02:54;;;;;;;2.53;2.33;;;;;;;31.25;28.24;93426.09;5103968;27;20107;-58
2022/08/05 12:05:27;;;;;;;2.03;1.92;;;;;;;31.61;27.16;93423.13;5103724;28;20024;-58
2022/08/05 12:07:56;;;;;;;3.95;2.30;;;;;;;31.63;27.11;93419.56;5100827;28;20011;-58
2022/08/05 12:10:25;;;;;;;3.42;2.35;;;;;;;31.61;26.39;93425.97;5102976;28;20015;-58
2022/08/05 12:12:51;;;;;;;2.00;1.90;;;;;;;31.97;28.78;93429.38;5102515;28;20024;-58
2022/08/05 12:15:21;;;;;;;2.45;2.25;;;;;;;32.35;26.42;93422.72;5101964;28;20020;-55
2022/08/05 12:17:47;;;;;;;2.17;2.00;;;;;;;32.18;24.14;93421.81;5102961;28;20028;-59
2022/08/05 12:20:12;;;;;;;4.63;1.80;;;;;;;31.84;23.63;93418.44;5102753;28;20024;-59
2022/08/05 12:22:38;;;;;;;4.15;1.80;;;;;;;31.46;24.98;93423.59;5105253;28;20016;-59
2022/08/05 12:25:04;;;;;;;3.28;2.22;;;;;;;31.16;24.36;93415.97;5090211;28;20034;-58
2022/08/05 12:27:31;;;;;;;4.38;2.53;;;;;;;30.95;25.59;93419.16;5089410;28;20116;-58
2022/08/05 12:30:06;;;;;;;2.75;1.88;;;;;;;30.68;25.83;93420.78;5089597;28;20328;-59
2022/08/05 12:32:34;;;;;;;4.07;2.25;;;;;;;30.52;26.30;93417.63;5087641;28;20031;-58
2022/08/05 12:35:02;;;;;;;7.88;2.75;;;;;;;30.70;28.66;93409.41;5090026;28;20032;-57
2022/08/05 12:37:28;;;;;;;;;;;;;;;30.64;27.29;93406.47;5088676;28;20031;-58